Time;durP1;ratioP1;P1;durP2;ratioP2;P2;SDS_P1;SDS_P2;PMS_P1;PMS_P2;Temp;Humidity;BMP_temperature;BMP_pressure;BME280_temperature;BME280_humidity;BME280_pressure;Samples;Min_cycle;Max_cycle;Signal;HPM_P1;HPM_P2
2023/09/13 00:01:00;;;;;;;13.27;7.85;;;19.50;86.90;;;;;;5005868;28;20046;-85
2023/09/13 00:03:27;;;;;;;15.32;7.63;;;19.80;87.40;;;;;;5023560;28;20037;-87
2023/09/13 00:05:55;;;;;;;16.10;7.97;;;20.30;85.60;;;;;;4999099;28;20054;-85
2023/09/13 00:08:22;;;;;;;14.40;7.05;;;20.80;84.30;;;;;;4998942;28;20128;-84
2023/09/13 00:11:12;;;;;;;19.37;8.30;;;20.90;83.20;;;;;;5021540;28;20060;-83
2023/09/13 00:14:05;;;;;;;14.82;8.23;;;21.20;82.70;;;;;;5015829;28;20505;-83
2023/09/13 00:16:32;;;;;;;14.15;8.25;;;20.40;82.00;;;;;;5019123;28;20585;-84
2023/09/13 00:19:03;;;;;;;18.13;7.63;;;19.60;85.10;;;;;;5005998;28;20045;-87
2023/09/13 00:21:33;;;;;;;15.88;8.13;;;19.20;86.80;;;;;;4998754;28;20145;-86
2023/09/13 00:24:22;;;;;;;17.30;7.90;;;19.10;87.30;;;;;;5009568;28;20056;-86
2023/09/13 00:27:00;;;;;;;15.48;8.60;;;18.80;87.30;;;;;;5015385;28;20044;-85
2023/09/13 00:29:31;;;;;;;14.35;7.95;;;18.90;87.80;;;;;;5001020;28;20498;-80
2023/09/13 00:31:58;;;;;;;16.67;8.63;;;19.00;87.10;;;;;;4996013;28;20132;-85
2023/09/13 00:34:26;;;;;;;12.88;7.78;;;19.00;86.90;;;;;;5004577;28;20038;-85
2023/09/13 00:36:53;;;;;;;11.32;6.93;;;18.90;87.40;;;;;;5017404;28;20034;-87
2023/09/13 00:39:21;;;;;;;15.30;7.63;;;18.80;87.50;;;;;;5021163;28;20057;-83
2023/09/13 00:41:48;;;;;;;14.82;7.63;;;18.80;87.70;;;;;;5023330;28;20041;-83
2023/09/13 00:44:15;;;;;;;15.70;7.78;;;18.70;87.90;;;;;;5017183;28;20041;-84
2023/09/13 00:46:45;;;;;;;16.15;9.23;;;18.80;87.90;;;;;;5021895;28;20030;-83
2023/09/13 00:49:13;;;;;;;15.75;6.45;;;18.90;87.70;;;;;;5007383;28;20581;-83
2023/09/13 00:51:40;;;;;;;11.30;7.60;;;18.70;88.00;;;;;;5002725;28;20057;-82
2023/09/13 00:54:09;;;;;;;12.65;6.90;;;18.80;87.70;;;;;;5019025;28;20142;-84
2023/09/13 00:56:37;;;;;;;15.30;6.85;;;19.10;87.70;;;;;;5019455;28;20030;-83
2023/09/13 00:59:09;;;;;;;14.95;7.20;;;19.40;86.20;;;;;;5019391;28;20137;-84
2023/09/13 01:01:38;;;;;;;16.67;7.93;;;19.80;86.10;;;;;;5021588;28;20405;-83
2023/09/13 01:04:05;;;;;;;14.20;7.18;;;20.20;85.20;;;;;;5004732;28;20042;-83
2023/09/13 01:06:36;;;;;;;15.85;7.03;;;20.20;84.80;;;;;;5018843;28;20045;-83
2023/09/13 01:09:04;;;;;;;14.80;6.97;;;20.40;84.30;;;;;;5019987;28;20099;-87
2023/09/13 01:11:32;;;;;;;12.85;6.80;;;20.30;84.40;;;;;;5025748;28;20049;-86
2023/09/13 01:13:59;;;;;;;13.23;6.57;;;20.40;84.20;;;;;;5016138;28;20143;-85
2023/09/13 01:16:29;;;;;;;18.40;7.55;;;20.20;84.90;;;;;;5017647;28;20034;-85
2023/09/13 01:19:06;;;;;;;16.80;7.28;;;20.30;84.90;;;;;;5023555;28;20127;-86
2023/09/13 01:22:11;;;;;;;14.02;7.55;;;20.20;85.20;;;;;;4998911;28;20048;-86
2023/09/13 01:25:09;;;;;;;14.05;7.47;;;20.40;85.60;;;;;;5006487;28;20541;-85
2023/09/13 01:28:10;;;;;;;12.15;6.70;;;20.40;84.60;;;;;;5011702;28;20038;-86
2023/09/13 01:30:39;;;;;;;14.70;6.95;;;20.40;86.60;;;;;;4969305;28;20511;-87
2023/09/13 01:33:06;;;;;;;18.33;8.40;;;20.20;86.40;;;;;;5018592;28;20038;-86
2023/09/13 01:35:34;;;;;;;15.80;8.88;;;20.10;87.40;;;;;;5016356;28;20410;-85
2023/09/13 01:38:01;;;;;;;14.70;8.35;;;20.00;88.10;;;;;;5021529;28;20054;-85
2023/09/13 01:40:34;;;;;;;22.10;9.38;;;20.00;88.30;;;;;;5006373;28;20416;-88
2023/09/13 01:43:03;;;;;;;12.70;7.38;;;19.90;88.30;;;;;;5007218;28;20037;-84
2023/09/13 01:45:48;;;;;;;16.50;8.85;;;19.90;88.40;;;;;;5005394;28;20493;-80
2023/09/13 01:48:18;;;;;;;15.27;7.38;;;19.70;88.60;;;;;;5016781;28;20073;-83
2023/09/13 01:50:47;;;;;;;16.60;7.53;;;19.70;89.10;;;;;;5018174;28;20441;-81
2023/09/13 01:53:15;;;;;;;18.70;7.47;;;19.90;88.70;;;;;;5003167;28;20053;-83
2023/09/13 01:55:42;;;;;;;15.13;7.00;;;19.90;87.80;;;;;;5012628;28;20096;-82
2023/09/13 01:58:09;;;;;;;11.82;7.43;;;19.90;87.90;;;;;;5002388;28;20045;-85
2023/09/13 02:00:40;;;;;;;13.80;7.47;;;20.00;87.40;;;;;;5019679;28;20038;-86
2023/09/13 02:03:08;;;;;;;15.48;8.02;;;19.90;87.80;;;;;;5001811;28;20417;-85
2023/09/13 02:05:39;;;;;;;16.13;7.50;;;19.80;88.40;;;;;;5017014;28;20476;-87
2023/09/13 02:08:34;;;;;;;16.30;8.48;;;19.90;88.20;;;;;;5019665;28;20428;-87
2023/09/13 02:11:28;;;;;;;19.52;8.48;;;19.70;88.70;;;;;;5006654;28;20084;-87
2023/09/13 02:14:08;;;;;;;18.45;9.13;;;19.70;88.80;;;;;;5018871;28;20092;-89
2023/09/13 02:17:31;;;;;;;12.15;7.53;;;19.80;88.80;;;;;;4999022;28;20129;-89
2023/09/13 02:19:58;;;;;;;21.50;8.02;;;19.70;89.20;;;;;;5014744;28;20054;-83
2023/09/13 02:22:25;;;;;;;15.13;7.45;;;19.60;90.10;;;;;;5016829;28;20560;-84
2023/09/13 02:24:53;;;;;;;20.17;8.25;;;19.60;90.20;;;;;;5023669;28;20045;-86
2023/09/13 02:27:20;;;;;;;15.25;8.10;;;19.60;90.10;;;;;;5018727;28;20034;-85
2023/09/13 02:29:47;;;;;;;18.27;7.93;;;19.30;90.30;;;;;;4994671;28;20074;-85
2023/09/13 02:32:14;;;;;;;16.25;7.82;;;19.10;90.80;;;;;;5019791;28;20057;-85
2023/09/13 02:34:46;;;;;;;13.55;7.47;;;19.20;90.90;;;;;;5021740;28;20121;-85
2023/09/13 02:37:13;;;;;;;14.07;7.25;;;19.20;90.90;;;;;;5003760;28;20132;-88
2023/09/13 02:39:42;;;;;;;18.35;6.63;;;19.10;91.10;;;;;;5003387;28;20096;-85
2023/09/13 02:42:10;;;;;;;14.88;6.93;;;19.00;91.80;;;;;;5021955;28;20481;-85
2023/09/13 02:44:38;;;;;;;14.57;7.68;;;19.20;91.30;;;;;;5016572;28;20046;-85
2023/09/13 02:47:05;;;;;;;12.25;7.30;;;19.40;91.20;;;;;;5001761;28;20060;-85
2023/09/13 02:49:33;;;;;;;12.98;7.78;;;19.40;90.80;;;;;;5016388;28;20176;-85
2023/09/13 02:52:01;;;;;;;17.98;8.38;;;19.40;91.00;;;;;;5000939;28;20426;-85
2023/09/13 02:54:31;;;;;;;18.92;8.35;;;19.30;90.50;;;;;;5017671;28;20421;-84
2023/09/13 02:56:59;;;;;;;;;;;19.10;91.00;;;;;;5004689;28;20096;-86
2023/09/13 02:59:26;;;;;;;15.20;7.95;;;18.90;92.10;;;;;;5004778;28;19921;-85
2023/09/13 03:01:53;;;;;;;16.85;8.05;;;19.10;91.80;;;;;;4999974;28;20038;-86
2023/09/13 03:04:21;;;;;;;15.88;8.05;;;19.10;91.70;;;;;;5019245;28;20065;-86
2023/09/13 03:07:14;;;;;;;17.42;7.75;;;19.20;91.60;;;;;;5011245;28;20125;-89
2023/09/13 03:09:41;;;;;;;17.73;7.75;;;19.10;91.50;;;;;;5008952;28;20052;-87
2023/09/13 03:12:10;;;;;;;14.82;7.40;;;18.90;92.50;;;;;;4991017;28;20088;-88
2023/09/13 03:14:38;;;;;;;16.77;7.70;;;18.90;92.60;;;;;;5001089;28;20038;-82
2023/09/13 03:17:06;;;;;;;14.90;7.47;;;18.90;91.80;;;;;;5018306;28;20105;-82
2023/09/13 03:19:34;;;;;;;13.90;7.03;;;18.60;91.80;;;;;;5022575;28;20041;-85
2023/09/13 03:22:01;;;;;;;15.80;7.50;;;18.50;92.80;;;;;;5000286;28;20526;-86
2023/09/13 03:24:28;;;;;;;17.85;7.78;;;18.80;92.60;;;;;;5014567;28;20062;-86
2023/09/13 03:26:57;;;;;;;11.77;7.50;;;18.70;92.40;;;;;;5026360;28;20139;-87
2023/09/13 03:29:24;;;;;;;14.88;6.75;;;18.80;92.70;;;;;;5016688;28;20074;-87
2023/09/13 03:31:51;;;;;;;13.95;7.25;;;18.80;92.00;;;;;;5007577;28;20520;-85
2023/09/13 03:34:19;;;;;;;13.27;7.13;;;18.70;92.40;;;;;;5013643;28;20149;-87
2023/09/13 03:36:46;;;;;;;14.32;7.13;;;18.70;92.70;;;;;;5012906;28;20045;-88
2023/09/13 03:39:14;;;;;;;14.18;7.90;;;18.90;92.50;;;;;;5010539;28;20042;-87
2023/09/13 03:41:41;;;;;;;13.18;6.50;;;18.80;92.20;;;;;;5011870;28;20510;-87
2023/09/13 03:44:08;;;;;;;14.63;6.70;;;18.60;92.20;;;;;;5019474;28;20042;-87
2023/09/13 03:46:36;;;;;;;11.65;6.15;;;18.70;92.30;;;;;;5009454;28;20050;-87
2023/09/13 03:49:04;;;;;;;14.02;6.57;;;18.90;91.90;;;;;;5015114;28;20045;-84
2023/09/13 03:51:32;;;;;;;11.52;6.40;;;18.90;91.50;;;;;;5014946;28;20042;-85
2023/09/13 03:53:59;;;;;;;12.20;6.40;;;18.90;91.30;;;;;;5025541;28;20132;-85
2023/09/13 03:56:26;;;;;;;9.27;6.07;;;18.90;91.30;;;;;;4996287;28;20041;-85
2023/09/13 03:58:54;;;;;;;11.00;6.22;;;18.50;91.80;;;;;;5024813;28;20057;-85
2023/09/13 04:01:21;;;;;;;14.00;6.72;;;18.20;92.50;;;;;;5010897;28;20073;-85
2023/09/13 04:03:51;;;;;;;13.95;6.07;;;18.20;92.90;;;;;;5012329;28;20453;-88
2023/09/13 04:06:19;;;;;;;13.43;6.00;;;18.30;92.80;;;;;;4987255;28;20061;-88
2023/09/13 04:08:46;;;;;;;12.60;6.82;;;18.40;92.90;;;;;;5018441;28;20451;-87
2023/09/13 04:11:13;;;;;;;9.95;6.50;;;18.40;92.60;;;;;;5026318;28;20095;-86
2023/09/13 04:13:41;;;;;;;11.15;6.32;;;18.30;93.40;;;;;;5009312;28;20076;-90
2023/09/13 04:16:13;;;;;;;11.15;5.70;;;18.30;93.10;;;;;;5007371;28;20049;-83
2023/09/13 04:18:41;;;;;;;11.27;6.50;;;18.20;93.40;;;;;;5021979;28;20042;-85
2023/09/13 04:21:12;;;;;;;12.48;6.88;;;18.30;93.60;;;;;;5008070;28;20408;-85
2023/09/13 04:23:40;;;;;;;11.88;6.53;;;18.10;93.90;;;;;;5005374;28;20103;-86
2023/09/13 04:26:32;;;;;;;14.35;6.72;;;17.80;94.30;;;;;;5009076;28;20136;-86
2023/09/13 04:32:43;;;;;;;11.70;5.97;;;18.00;95.20;;;;;;5016177;28;20315;-84
2023/09/13 04:35:25;;;;;;;14.60;6.60;;;18.20;94.60;;;;;;5020996;28;20053;-85
2023/09/13 04:38:37;;;;;;;10.63;6.57;;;18.20;94.90;;;;;;5003829;28;20387;-84
2023/09/13 04:41:10;;;;;;;14.48;6.00;;;18.20;94.80;;;;;;4998134;28;20034;-81
2023/09/13 04:43:37;;;;;;;9.88;6.40;;;18.10;95.10;;;;;;5019746;28;20048;-82
2023/09/13 04:46:04;;;;;;;11.73;6.53;;;18.10;95.30;;;;;;4999301;28;20045;-85
2023/09/13 04:48:33;;;;;;;9.80;6.13;;;18.10;96.10;;;;;;5003392;28;20397;-85
2023/09/13 04:51:00;;;;;;;11.60;6.25;;;18.30;95.40;;;;;;5022064;28;20577;-84
2023/09/13 04:53:28;;;;;;;9.55;5.80;;;18.20;95.10;;;;;;5003425;28;20129;-83
2023/09/13 04:55:57;;;;;;;11.50;6.13;;;18.30;96.30;;;;;;5016913;28;20885;-81
2023/09/13 04:58:29;;;;;;;13.90;6.97;;;18.40;95.30;;;;;;5007269;28;20429;-83
2023/09/13 05:01:00;;;;;;;13.63;6.35;;;18.10;95.60;;;;;;5020896;28;20046;-81
2023/09/13 05:03:28;;;;;;;12.18;7.40;;;18.40;95.60;;;;;;5009800;28;20041;-90
2023/09/13 05:05:55;;;;;;;15.18;7.32;;;18.30;95.60;;;;;;5014160;28;20038;-81
2023/09/13 05:08:22;;;;;;;22.95;14.60;;;18.30;95.90;;;;;;4988747;28;20049;-84
2023/09/13 05:10:52;;;;;;;22.33;11.35;;;18.30;95.80;;;;;;5009452;28;20128;-80
2023/09/13 05:13:19;;;;;;;48.38;28.23;;;17.70;97.00;;;;;;5016159;28;20129;-84
2023/09/13 05:15:46;;;;;;;19.42;11.90;;;18.00;97.50;;;;;;5025023;28;20474;-81
2023/09/13 05:18:14;;;;;;;16.75;9.68;;;18.20;96.80;;;;;;5017795;28;20383;-83
2023/09/13 05:20:41;;;;;;;13.05;7.10;;;18.20;97.20;;;;;;5021888;28;20038;-81
2023/09/13 05:23:08;;;;;;;16.90;7.50;;;18.40;97.50;;;;;;5018503;28;20501;-82
2023/09/13 05:25:45;;;;;;;14.68;7.32;;;18.70;97.30;;;;;;5022142;28;20050;-86
2023/09/13 05:28:20;;;;;;;10.88;7.22;;;18.90;96.70;;;;;;5013684;28;20481;-82
2023/09/13 05:30:49;;;;;;;19.40;7.20;;;18.90;96.60;;;;;;5016318;28;20117;-85
2023/09/13 05:33:18;;;;;;;22.65;9.55;;;19.00;96.60;;;;;;5021075;28;20046;-84
2023/09/13 05:35:45;;;;;;;210.20;120.18;;;19.10;96.10;;;;;;5000866;28;20433;-83
2023/09/13 05:38:14;;;;;;;51.28;33.28;;;19.00;96.30;;;;;;5023527;28;20048;-84
2023/09/13 05:40:42;;;;;;;24.05;13.25;;;19.10;95.90;;;;;;5020608;28;20057;-82
2023/09/13 05:43:11;;;;;;;22.08;10.57;;;19.10;96.20;;;;;;5022002;28;20050;-87
2023/09/13 05:45:43;;;;;;;109.63;64.13;;;19.10;95.50;;;;;;5024529;28;20136;-87
2023/09/13 05:48:11;;;;;;;104.93;63.83;;;19.30;96.30;;;;;;4989277;28;20060;-85
2023/09/13 05:50:38;;;;;;;28.63;19.08;;;19.30;95.80;;;;;;5016359;28;20057;-85
2023/09/13 05:53:13;;;;;;;19.38;10.73;;;19.40;95.40;;;;;;5004611;28;20045;-84
2023/09/13 05:55:41;;;;;;;;;;;19.30;95.60;;;;;;5021118;28;20473;-85
2023/09/13 05:58:08;;;;;;;16.25;9.20;;;19.30;95.90;;;;;;5017710;28;19929;-85
2023/09/13 06:00:35;;;;;;;19.40;7.85;;;19.40;95.60;;;;;;5007245;28;20050;-85
2023/09/13 06:03:03;;;;;;;26.30;10.32;;;19.30;96.00;;;;;;5020998;28;20108;-80
2023/09/13 06:05:30;;;;;;;25.98;13.52;;;19.50;95.70;;;;;;5023191;28;20049;-82
2023/09/13 06:07:57;;;;;;;25.13;10.57;;;19.80;95.00;;;;;;5011056;28;20057;-82
2023/09/13 06:10:25;;;;;;;20.30;10.95;;;19.80;94.40;;;;;;5020495;28;20385;-84
2023/09/13 06:12:52;;;;;;;19.13;11.32;;;19.90;93.80;;;;;;5015737;28;20042;-85
2023/09/13 06:15:20;;;;;;;18.58;9.20;;;20.10;93.60;;;;;;5028257;28;20053;-90
2023/09/13 06:17:47;;;;;;;17.92;9.50;;;19.90;94.00;;;;;;5025125;28;20041;-90
2023/09/13 06:20:18;;;;;;;20.63;9.10;;;20.10;93.80;;;;;;5017730;28;20664;-91
2023/09/13 06:22:46;;;;;;;15.30;8.23;;;20.30;93.50;;;;;;5000361;28;20060;-85
2023/09/13 06:25:17;;;;;;;18.52;9.38;;;20.30;93.70;;;;;;5026041;28;20037;-83
2023/09/13 06:27:47;;;;;;;17.08;8.27;;;20.30;93.20;;;;;;5007345;28;20096;-85
2023/09/13 06:30:15;;;;;;;19.00;8.45;;;20.30;93.50;;;;;;5005046;28;20486;-86
2023/09/13 06:32:44;;;;;;;22.38;8.38;;;20.50;93.50;;;;;;5019845;28;20125;-86
2023/09/13 06:35:23;;;;;;;;;;;20.20;92.80;;;;;;5018871;28;20045;-85
2023/09/13 06:37:53;;;;;;;16.48;8.48;;;20.10;93.40;;;;;;5005442;28;19921;-84
2023/09/13 06:40:21;;;;;;;16.75;8.30;;;20.20;93.80;;;;;;5011348;28;20214;-83
2023/09/13 06:43:01;;;;;;;18.13;8.50;;;20.40;93.20;;;;;;4999485;28;20041;-83
2023/09/13 06:45:29;;;;;;;19.65;8.02;;;20.40;92.90;;;;;;5021427;28;20680;-84
2023/09/13 06:47:58;;;;;;;16.63;8.05;;;20.50;93.10;;;;;;5012307;28;20056;-85
2023/09/13 06:50:26;;;;;;;13.65;7.47;;;20.60;92.60;;;;;;5014674;28;20029;-85
2023/09/13 06:53:13;;;;;;;16.75;8.27;;;20.70;92.70;;;;;;5019886;28;20050;-84
2023/09/13 06:56:02;;;;;;;15.93;8.25;;;20.70;92.20;;;;;;5015083;28;20046;-84
2023/09/13 06:58:35;;;;;;;13.43;7.85;;;20.80;92.40;;;;;;5021531;28;20049;-85
2023/09/13 07:01:09;;;;;;;18.73;7.80;;;21.00;92.20;;;;;;5020709;28;20049;-83
2023/09/13 07:03:40;;;;;;;19.55;8.15;;;20.70;92.70;;;;;;5020783;28;20116;-84
2023/09/13 07:06:16;;;;;;;24.63;8.48;;;20.70;92.70;;;;;;5019152;28;20048;-85
2023/09/13 07:08:45;;;;;;;16.60;8.50;;;20.70;92.50;;;;;;5006581;28;20049;-84
2023/09/13 07:11:12;;;;;;;20.30;8.38;;;20.90;92.40;;;;;;5021629;28;20033;-84
2023/09/13 07:13:42;;;;;;;15.32;7.40;;;21.00;92.30;;;;;;4999429;28;20450;-84
2023/09/13 07:16:09;;;;;;;13.48;7.45;;;21.10;92.00;;;;;;5019209;28;20041;-84
2023/09/13 07:18:36;;;;;;;13.15;7.30;;;21.20;91.90;;;;;;5021308;28;20045;-82
2023/09/13 07:21:04;;;;;;;24.20;7.70;;;21.00;92.50;;;;;;5019309;28;20049;-85
2023/09/13 07:23:31;;;;;;;10.98;6.78;;;21.10;92.10;;;;;;5013590;28;20058;-86
2023/09/13 07:25:59;;;;;;;13.38;6.50;;;21.10;92.00;;;;;;5020930;28;20626;-85
2023/09/13 07:28:26;;;;;;;12.25;6.20;;;21.00;92.40;;;;;;5001823;28;20033;-83
2023/09/13 07:30:54;;;;;;;16.73;6.93;;;21.20;91.80;;;;;;4999863;28;20139;-84
2023/09/13 07:33:23;;;;;;;14.02;7.03;;;21.30;91.90;;;;;;5009539;28;20056;-84
2023/09/13 07:35:50;;;;;;;11.32;6.38;;;21.40;91.90;;;;;;5002540;28;20045;-83
2023/09/13 07:38:17;;;;;;;13.82;6.57;;;21.40;91.80;;;;;;5016148;28;20037;-86
2023/09/13 07:40:47;;;;;;;17.17;6.60;;;21.40;91.40;;;;;;5015871;28;20474;-85
2023/09/13 07:43:17;;;;;;;16.05;8.02;;;21.40;91.50;;;;;;5005261;28;20065;-86
2023/09/13 07:45:46;;;;;;;18.10;7.25;;;21.60;91.10;;;;;;5019023;28;20056;-84
2023/09/13 07:48:13;;;;;;;11.65;7.00;;;21.60;91.30;;;;;;5007224;28;20042;-83
2023/09/13 07:50:41;;;;;;;16.15;7.22;;;21.70;91.20;;;;;;5008028;28;20042;-85
2023/09/13 07:53:10;;;;;;;14.43;7.47;;;21.80;91.10;;;;;;4995505;28;20181;-84
2023/09/13 07:55:39;;;;;;;12.73;6.70;;;21.90;91.00;;;;;;5003633;28;20045;-84
2023/09/13 07:58:08;;;;;;;11.52;5.88;;;21.70;90.90;;;;;;5012209;28;20042;-84
2023/09/13 08:00:35;;;;;;;15.77;6.70;;;21.80;91.00;;;;;;4995129;28;20442;-84
2023/09/13 08:03:04;;;;;;;14.57;6.55;;;21.90;90.90;;;;;;4998891;28;20042;-85
2023/09/13 08:05:32;;;;;;;10.85;6.22;;;22.00;90.70;;;;;;5018856;28;20056;-85
2023/09/13 08:07:59;;;;;;;11.02;5.80;;;22.30;90.30;;;;;;4998815;28;20497;-83
2023/09/13 08:10:27;;;;;;;14.52;6.38;;;22.50;90.20;;;;;;4994897;28;20037;-84
2023/09/13 08:12:54;;;;;;;15.18;6.57;;;22.60;90.50;;;;;;5012454;28;20065;-86
2023/09/13 08:15:22;;;;;;;11.93;5.50;;;22.70;88.90;;;;;;5019644;28;20042;-87
2023/09/13 08:18:09;;;;;;;10.73;5.50;;;22.90;88.70;;;;;;5017877;28;20498;-86
2023/09/13 08:20:37;;;;;;;12.15;5.40;;;23.20;88.40;;;;;;4999311;28;20489;-87
2023/09/13 08:23:05;;;;;;;15.32;5.90;;;23.20;88.10;;;;;;5012840;28;20129;-87
2023/09/13 08:25:34;;;;;;;10.48;5.30;;;23.50;87.20;;;;;;5020510;28;20519;-86
2023/09/13 08:28:03;;;;;;;11.57;4.75;;;23.70;86.20;;;;;;5022896;28;20418;-84
2023/09/13 08:30:33;;;;;;;9.98;5.40;;;23.80;85.70;;;;;;5016815;28;20037;-86
2023/09/13 08:33:03;;;;;;;13.32;5.95;;;23.80;86.30;;;;;;5011173;28;20076;-85
2023/09/13 08:35:32;;;;;;;9.68;5.63;;;23.90;86.00;;;;;;4998226;28;20144;-85
2023/09/13 08:38:09;;;;;;;15.35;5.22;;;24.10;85.00;;;;;;5021479;28;20045;-85
2023/09/13 08:40:42;;;;;;;8.65;5.03;;;24.30;84.20;;;;;;5018799;28;20046;-86
2023/09/13 08:43:13;;;;;;;12.93;5.18;;;24.30;84.00;;;;;;4994226;28;20047;-86
2023/09/13 08:45:54;;;;;;;12.38;7.30;;;24.40;83.30;;;;;;5007410;28;20045;-86
2023/09/13 08:48:22;;;;;;;18.20;6.78;;;24.40;82.90;;;;;;5003117;28;20057;-84
2023/09/13 08:50:49;;;;;;;9.63;4.85;;;24.50;82.80;;;;;;5013600;28;20053;-83
2023/09/13 08:53:18;;;;;;;9.48;4.57;;;24.70;82.50;;;;;;5014546;28;20042;-84
2023/09/13 08:55:47;;;;;;;10.77;5.20;;;24.80;82.70;;;;;;4996846;28;20042;-86
2023/09/13 08:58:14;;;;;;;11.55;4.65;;;24.90;80.90;;;;;;5019314;28;20046;-85
2023/09/13 09:00:46;;;;;;;11.48;5.30;;;25.00;80.30;;;;;;5021158;28;20121;-84
2023/09/13 09:03:15;;;;;;;9.43;5.38;;;25.00;80.30;;;;;;5003410;28;20041;-86
2023/09/13 09:05:45;;;;;;;13.00;5.10;;;25.30;80.60;;;;;;5021288;28;20049;-85
2023/09/13 09:08:15;;;;;;;11.18;4.85;;;25.30;80.10;;;;;;5007418;28;20386;-86
2023/09/13 09:10:43;;;;;;;7.95;4.43;;;25.60;80.20;;;;;;5000845;28;20048;-85
2023/09/13 09:13:12;;;;;;;8.23;4.63;;;25.70;79.60;;;;;;5024853;28;20434;-85
2023/09/13 09:15:40;;;;;;;8.32;4.30;;;25.70;79.50;;;;;;5003717;28;20038;-86
2023/09/13 09:18:10;;;;;;;11.63;5.03;;;25.70;79.90;;;;;;4997804;28;20045;-86
2023/09/13 09:20:39;;;;;;;20.73;4.47;;;25.90;79.10;;;;;;5003075;28;20065;-86
2023/09/13 09:23:08;;;;;;;8.80;4.20;;;26.10;79.30;;;;;;5006317;28;20500;-87
2023/09/13 09:25:39;;;;;;;10.07;4.60;;;26.20;78.80;;;;;;5005118;28;20070;-85
2023/09/13 09:28:06;;;;;;;10.32;5.72;;;26.30;78.00;;;;;;5009555;28;20076;-88
2023/09/13 09:30:51;;;;;;;9.55;4.85;;;26.20;77.10;;;;;;5017211;28;20054;-87
2023/09/13 09:33:31;;;;;;;9.95;4.22;;;26.50;76.80;;;;;;5038329;28;20054;-86
2023/09/13 09:36:00;;;;;;;13.60;4.10;;;26.60;75.90;;;;;;5027263;28;20121;-84
2023/09/13 09:38:29;;;;;;;6.10;3.70;;;26.70;75.00;;;;;;5007942;28;20068;-85
2023/09/13 09:41:06;;;;;;;7.32;3.97;;;26.70;74.10;;;;;;5015118;28;20541;-87
2023/09/13 09:43:36;;;;;;;8.20;4.25;;;26.90;73.80;;;;;;5004128;28;20134;-87
2023/09/13 09:46:03;;;;;;;9.20;4.25;;;26.90;72.30;;;;;;5008134;28;20061;-85
2023/09/13 09:48:38;;;;;;;6.85;4.50;;;26.70;71.80;;;;;;5004650;28;20083;-86
2023/09/13 09:51:14;;;;;;;7.80;4.28;;;27.00;72.20;;;;;;5022642;28;20092;-85
2023/09/13 09:53:41;;;;;;;11.88;3.90;;;27.00;72.90;;;;;;4991131;28;20060;-85
2023/09/13 09:56:11;;;;;;;8.07;3.90;;;27.30;72.90;;;;;;5015095;28;20162;-84
2023/09/13 09:58:40;;;;;;;8.10;4.18;;;27.50;72.30;;;;;;4986791;28;20471;-85
2023/09/13 10:01:16;;;;;;;9.73;4.13;;;27.50;71.20;;;;;;4997902;28;20408;-82
2023/09/13 10:03:58;;;;;;;8.10;4.05;;;27.50;71.80;;;;;;5004710;28;20057;-85
2023/09/13 10:06:27;;;;;;;11.40;4.32;;;27.50;71.00;;;;;;5021040;28;20060;-86
2023/09/13 10:08:54;;;;;;;9.30;4.10;;;27.70;71.00;;;;;;5006768;28;20523;-84
2023/09/13 10:11:22;;;;;;;8.15;4.07;;;27.80;70.40;;;;;;5020690;28;20092;-83
2023/09/13 10:14:01;;;;;;;8.02;3.90;;;28.00;69.90;;;;;;5006912;28;20045;-84
2023/09/13 10:16:31;;;;;;;8.27;3.95;;;28.00;68.90;;;;;;4999140;28;20087;-86
2023/09/13 10:19:02;;;;;;;;;;;28.10;68.50;;;;;;5001957;28;20383;-86
2023/09/13 10:21:32;;;;;;;6.78;4.03;;;28.20;67.90;;;;;;5032591;28;19921;-85
2023/09/13 10:24:10;;;;;;;7.28;3.83;;;28.20;68.30;;;;;;5016025;28;20049;-85
2023/09/13 10:26:39;;;;;;;10.18;3.85;;;28.40;68.30;;;;;;5005553;28;20046;-84
2023/09/13 10:29:35;;;;;;;10.85;4.30;;;28.50;68.40;;;;;;5017800;28;20049;-84
2023/09/13 10:32:11;;;;;;;9.02;5.22;;;28.70;68.30;;;;;;5023058;28;20138;-84
2023/09/13 10:34:49;;;;;;;10.73;3.92;;;28.80;67.20;;;;;;5007551;28;20061;-86
2023/09/13 10:37:34;;;;;;;8.15;4.18;;;28.90;66.60;;;;;;5021841;28;20040;-86
2023/09/13 10:40:22;;;;;;;8.30;3.80;;;28.90;66.10;;;;;;5002109;28;20057;-85
2023/09/13 10:42:53;;;;;;;8.80;4.87;;;29.10;66.10;;;;;;5020037;28;20099;-87
2023/09/13 10:45:22;;;;;;;;;;;29.30;65.70;;;;;;5023220;28;20044;-86
2023/09/13 10:47:51;;;;;;;7.07;4.13;;;29.40;65.30;;;;;;5005021;28;20369;-86
2023/09/13 10:50:21;;;;;;;8.82;3.97;;;29.40;64.30;;;;;;5019659;28;20029;-87
2023/09/13 10:52:49;;;;;;;6.82;3.90;;;29.60;64.50;;;;;;5020263;28;20057;-85
2023/09/13 10:55:18;;;;;;;8.60;3.80;;;29.50;62.20;;;;;;5022912;28;20053;-88
2023/09/13 10:57:52;;;;;;;7.75;3.80;;;29.20;62.10;;;;;;5016971;28;20050;-85
2023/09/13 11:00:31;;;;;;;12.00;4.35;;;29.50;62.40;;;;;;5026856;28;20076;-86
2023/09/13 11:03:00;;;;;;;7.90;3.90;;;29.80;62.20;;;;;;4999712;28;20034;-85
2023/09/13 11:05:28;;;;;;;8.50;3.80;;;29.90;62.00;;;;;;5013914;28;20041;-87
2023/09/13 11:07:56;;;;;;;8.82;3.80;;;29.90;62.10;;;;;;5021061;28;20048;-85
2023/09/13 11:10:32;;;;;;;6.97;3.70;;;30.10;61.90;;;;;;5018334;28;20046;-88
2023/09/13 11:13:32;;;;;;;8.75;3.75;;;29.90;61.30;;;;;;5012633;28;20053;-86
2023/09/13 11:16:15;;;;;;;8.80;3.60;;;29.90;60.90;;;;;;5011195;28;20084;-87
2023/09/13 11:18:55;;;;;;;7.15;3.45;;;29.90;60.30;;;;;;5023266;28;20049;-87
2023/09/13 11:21:54;;;;;;;5.88;3.35;;;30.20;59.10;;;;;;5022270;28;20556;-88
2023/09/13 11:24:41;;;;;;;9.57;3.33;;;30.50;58.50;;;;;;5009290;28;20059;-88
2023/09/13 11:27:16;;;;;;;6.50;3.55;;;30.50;59.30;;;;;;5025016;28;20120;-87
2023/09/13 11:29:51;;;;;;;7.60;3.45;;;30.70;59.00;;;;;;5026406;28;20057;-88
2023/09/13 11:32:27;;;;;;;7.43;3.63;;;31.00;58.70;;;;;;5023546;28;20405;-85
2023/09/13 11:34:59;;;;;;;5.50;3.22;;;31.10;58.00;;;;;;5010939;28;20052;-88
2023/09/13 11:37:37;;;;;;;7.72;3.40;;;31.10;57.80;;;;;;5002571;28;20048;-89
2023/09/13 11:40:11;;;;;;;7.43;3.50;;;31.10;58.10;;;;;;5003014;28;20057;-89
2023/09/13 11:42:40;;;;;;;8.40;3.70;;;31.20;58.00;;;;;;5020276;28;20081;-88
2023/09/13 11:45:33;;;;;;;7.15;3.80;;;31.10;58.00;;;;;;5026091;28;20049;-86
2023/09/13 11:48:04;;;;;;;9.52;3.88;;;31.40;58.10;;;;;;5020186;28;20034;-88
2023/09/13 11:50:52;;;;;;;11.50;5.53;;;31.60;58.10;;;;;;5024161;28;20045;-88
2023/09/13 11:53:42;;;;;;;15.10;7.00;;;31.70;58.20;;;;;;5006178;28;20072;-88
2023/09/13 11:56:37;;;;;;;10.55;6.30;;;31.50;57.80;;;;;;4992849;28;20038;-85
2023/09/13 11:59:13;;;;;;;9.93;5.97;;;31.60;57.70;;;;;;5016740;28;20041;-88
2023/09/13 12:01:45;;;;;;;25.45;8.45;;;31.50;57.00;;;;;;5020919;28;20041;-86
2023/09/13 12:04:36;;;;;;;12.63;6.85;;;31.60;57.40;;;;;;5009343;28;20053;-85
2023/09/13 12:07:09;;;;;;;11.13;7.38;;;31.70;58.70;;;;;;5000581;28;20049;-87
2023/09/13 12:09:38;;;;;;;17.33;7.38;;;31.50;58.50;;;;;;5008060;28;20052;-86
2023/09/13 12:12:12;;;;;;;12.30;6.63;;;31.60;58.50;;;;;;5019525;28;20041;-84
2023/09/13 12:14:44;;;;;;;12.70;6.97;;;31.40;58.00;;;;;;4998868;28;20046;-83
2023/09/13 12:17:14;;;;;;;11.40;5.47;;;31.50;58.30;;;;;;5017040;28;20050;-86
2023/09/13 12:19:46;;;;;;;8.40;5.60;;;31.90;57.90;;;;;;5018051;28;20144;-86
2023/09/13 12:22:15;;;;;;;7.63;5.28;;;32.00;57.60;;;;;;5020627;28;20041;-84
2023/09/13 12:24:51;;;;;;;10.07;6.17;;;32.20;57.40;;;;;;5015877;28;20100;-86
2023/09/13 12:27:23;;;;;;;8.35;4.63;;;32.20;56.90;;;;;;5016744;28;20291;-85
2023/09/13 12:29:51;;;;;;;9.45;4.60;;;32.10;56.10;;;;;;5016308;28;20449;-85
2023/09/13 12:32:21;;;;;;;14.50;6.72;;;32.10;57.00;;;;;;5017302;28;20042;-86
2023/09/13 12:34:58;;;;;;;8.85;4.88;;;32.20;55.40;;;;;;5005690;28;20049;-86
2023/09/13 12:37:26;;;;;;;7.68;4.57;;;32.20;54.90;;;;;;5019801;28;20049;-86
2023/09/13 12:39:55;;;;;;;7.95;3.67;;;32.40;54.80;;;;;;5022004;28;20073;-87
2023/09/13 12:42:22;;;;;;;8.35;4.20;;;32.60;54.10;;;;;;5024952;28;20551;-87
2023/09/13 12:44:49;;;;;;;10.52;3.67;;;33.00;54.50;;;;;;5022472;28;20080;-88
2023/09/13 12:47:18;;;;;;;8.00;3.70;;;32.80;54.00;;;;;;5022466;28;20140;-85
2023/09/13 12:49:46;;;;;;;7.28;3.22;;;32.60;54.50;;;;;;5001502;28;20070;-89
2023/09/13 12:52:18;;;;;;;6.40;3.85;;;32.60;54.40;;;;;;5007051;28;20564;-87
2023/09/13 12:54:47;;;;;;;7.28;2.78;;;32.80;54.40;;;;;;5017386;28;20119;-87
2023/09/13 12:57:15;;;;;;;10.65;4.35;;;32.70;53.30;;;;;;5027751;28;20045;-87
2023/09/13 12:59:49;;;;;;;10.15;3.28;;;32.80;53.00;;;;;;5017104;28;20034;-87
2023/09/13 13:02:35;;;;;;;6.43;2.65;;;32.30;53.20;;;;;;5019998;28;20127;-82
2023/09/13 13:05:42;;;;;;;8.68;3.40;;;32.30;52.80;;;;;;5004681;28;20037;-86
2023/09/13 13:08:13;;;;;;;5.57;2.70;;;32.50;53.10;;;;;;5009175;28;20554;-87